sensor_id;sensor_type;location;lat;lon;timestamp;P1;P2;P0
72854;PMS7003;60991;51.278;22.550;2023-04-01T00:00:58;30.75;27.00;18.00
72854;PMS7003;60991;51.278;22.550;2023-04-01T00:02:30;34.75;31.00;20.00
72854;PMS7003;60991;51.278;22.550;2023-04-01T00:04:00;37.00;31.67;21.00
72854;PMS7003;60991;51.278;22.550;2023-04-01T00:05:30;37.00;31.25;19.75
72854;PMS7003;60991;51.278;22.550;2023-04-01T00:07:00;33.67;30.00;20.67
72854;PMS7003;60991;51.278;22.550;2023-04-01T00:08:31;40.00;30.75;20.75
72854;PMS7003;60991;51.278;22.550;2023-04-01T00:10:01;29.50;28.25;20.00
72854;PMS7003;60991;51.278;22.550;2023-04-01T00:11:32;31.00;26.50;20.25
72854;PMS7003;60991;51.278;22.550;2023-04-01T00:13:02;39.25;30.00;17.50
72854;PMS7003;60991;51.278;22.550;2023-04-01T00:14:33;40.50;35.50;23.25
72854;PMS7003;60991;51.278;22.550;2023-04-01T00:16:03;37.75;31.00;20.00
72854;PMS7003;60991;51.278;22.550;2023-04-01T00:17:34;37.00;29.75;19.75
72854;PMS7003;60991;51.278;22.550;2023-04-01T00:19:04;31.50;27.75;19.50
72854;PMS7003;60991;51.278;22.550;2023-04-01T00:20:35;33.50;28.00;20.00
72854;PMS7003;60991;51.278;22.550;2023-04-01T00:22:05;37.25;32.25;21.00
72854;PMS7003;60991;51.278;22.550;2023-04-01T00:23:36;31.75;26.75;18.25
72854;PMS7003;60991;51.278;22.550;2023-04-01T00:25:07;31.67;30.33;21.00
72854;PMS7003;60991;51.278;22.550;2023-04-01T00:26:37;30.25;28.50;20.75
72854;PMS7003;60991;51.278;22.550;2023-04-01T00:28:07;37.75;34.00;21.25
72854;PMS7003;60991;51.278;22.550;2023-04-01T00:29:37;31.50;29.75;19.50
72854;PMS7003;60991;51.278;22.550;2023-04-01T00:31:08;37.33;33.67;20.33
72854;PMS7003;60991;51.278;22.550;2023-04-01T00:32:39;30.50;28.00;18.75
72854;PMS7003;60991;51.278;22.550;2023-04-01T00:34:10;38.00;29.75;21.00
72854;PMS7003;60991;51.278;22.550;2023-04-01T00:35:41;36.00;30.00;20.00
72854;PMS7003;60991;51.278;22.550;2023-04-01T00:37:11;38.75;31.50;21.50
72854;PMS7003;60991;51.278;22.550;2023-04-01T00:38:41;36.00;32.50;18.50
72854;PMS7003;60991;51.278;22.550;2023-04-01T00:40:32;33.25;28.75;19.25
72854;PMS7003;60991;51.278;22.550;2023-04-01T00:42:04;29.00;24.00;19.00
72854;PMS7003;60991;51.278;22.550;2023-04-01T00:43:34;45.50;36.00;19.50
72854;PMS7003;60991;51.278;22.550;2023-04-01T00:46:56;30.50;23.75;17.25
72854;PMS7003;60991;51.278;22.550;2023-04-01T00:48:27;34.00;29.50;18.75
72854;PMS7003;60991;51.278;22.550;2023-04-01T00:50:01;28.50;25.00;16.75
72854;PMS7003;60991;51.278;22.550;2023-04-01T00:51:31;36.00;35.25;21.75
72854;PMS7003;60991;51.278;22.550;2023-04-01T00:53:01;24.50;22.25;16.00
72854;PMS7003;60991;51.278;22.550;2023-04-01T00:54:32;38.75;32.25;18.75
72854;PMS7003;60991;51.278;22.550;2023-04-01T00:56:07;38.75;33.00;19.00
72854;PMS7003;60991;51.278;22.550;2023-04-01T00:57:43;35.00;31.00;19.25
72854;PMS7003;60991;51.278;22.550;2023-04-01T00:59:16;31.50;29.50;20.50
72854;PMS7003;60991;51.278;22.550;2023-04-01T01:00:51;28.00;25.50;17.00
72854;PMS7003;60991;51.278;22.550;2023-04-01T01:02:22;35.25;30.50;21.50
72854;PMS7003;60991;51.278;22.550;2023-04-01T01:03:52;33.50;28.75;19.00
72854;PMS7003;60991;51.278;22.550;2023-04-01T01:05:26;32.00;28.75;20.25
72854;PMS7003;60991;51.278;22.550;2023-04-01T01:08:51;31.50;28.00;19.00
72854;PMS7003;60991;51.278;22.550;2023-04-01T01:10:35;36.75;29.25;18.50
72854;PMS7003;60991;51.278;22.550;2023-04-01T01:13:56;36.50;30.50;16.50
72854;PMS7003;60991;51.278;22.550;2023-04-01T01:17:05;30.00;28.33;18.00
72854;PMS7003;60991;51.278;22.550;2023-04-01T01:19:16;31.00;24.25;19.50
72854;PMS7003;60991;51.278;22.550;2023-04-01T01:24:49;40.75;33.00;19.25
72854;PMS7003;60991;51.278;22.550;2023-04-01T01:30:51;30.25;26.25;17.00
72854;PMS7003;60991;51.278;22.550;2023-04-01T01:34:46;34.75;30.25;19.75
72854;PMS7003;60991;51.278;22.550;2023-04-01T01:36:25;37.50;33.50;22.00
72854;PMS7003;60991;51.278;22.550;2023-04-01T01:38:09;39.50;29.25;20.75
72854;PMS7003;60991;51.278;22.550;2023-04-01T01:39:44;33.75;27.75;19.75
72854;PMS7003;60991;51.278;22.550;2023-04-01T01:41:19;30.00;26.25;18.50
72854;PMS7003;60991;51.278;22.550;2023-04-01T01:42:53;35.00;30.00;18.00
72854;PMS7003;60991;51.278;22.550;2023-04-01T01:44:28;40.00;32.75;18.25
72854;PMS7003;60991;51.278;22.550;2023-04-01T01:46:01;31.25;27.50;18.75
72854;PMS7003;60991;51.278;22.550;2023-04-01T01:47:36;32.00;29.50;18.75
72854;PMS7003;60991;51.278;22.550;2023-04-01T01:49:07;39.25;32.75;20.25
72854;PMS7003;60991;51.278;22.550;2023-04-01T01:50:41;32.00;28.00;19.00
72854;PMS7003;60991;51.278;22.550;2023-04-01T01:52:13;34.50;29.00;20.25
72854;PMS7003;60991;51.278;22.550;2023-04-01T01:53:43;33.25;29.00;21.25
72854;PMS7003;60991;51.278;22.550;2023-04-01T01:55:25;31.75;25.25;18.75
72854;PMS7003;60991;51.278;22.550;2023-04-01T01:57:07;34.50;28.75;19.75
72854;PMS7003;60991;51.278;22.550;2023-04-01T01:58:41;36.25;33.50;20.25
72854;PMS7003;60991;51.278;22.550;2023-04-01T02:00:15;21.50;20.25;15.25
72854;PMS7003;60991;51.278;22.550;2023-04-01T02:01:48;35.50;25.50;18.00
72854;PMS7003;60991;51.278;22.550;2023-04-01T02:03:22;37.25;33.50;19.00
72854;PMS7003;60991;51.278;22.550;2023-04-01T02:04:54;32.75;26.25;18.00
72854;PMS7003;60991;51.278;22.550;2023-04-01T02:06:25;38.25;30.00;19.50
72854;PMS7003;60991;51.278;22.550;2023-04-01T02:08:04;30.00;27.75;18.75
72854;PMS7003;60991;51.278;22.550;2023-04-01T02:09:38;33.00;28.75;17.00
72854;PMS7003;60991;51.278;22.550;2023-04-01T02:11:09;36.00;27.75;18.25
72854;PMS7003;60991;51.278;22.550;2023-04-01T02:12:42;28.25;26.75;19.75
72854;PMS7003;60991;51.278;22.550;2023-04-01T02:14:17;33.25;25.75;18.00
72854;PMS7003;60991;51.278;22.550;2023-04-01T02:15:51;36.00;30.25;19.00
72854;PMS7003;60991;51.278;22.550;2023-04-01T02:17:26;35.75;29.75;21.00
72854;PMS7003;60991;51.278;22.550;2023-04-01T02:18:59;31.75;28.75;18.50
72854;PMS7003;60991;51.278;22.550;2023-04-01T02:20:30;31.50;27.25;20.50
72854;PMS7003;60991;51.278;22.550;2023-04-01T02:22:02;34.50;28.25;18.50
72854;PMS7003;60991;51.278;22.550;2023-04-01T02:23:36;34.00;26.25;16.75
72854;PMS7003;60991;51.278;22.550;2023-04-01T02:25:09;32.75;29.25;19.00
72854;PMS7003;60991;51.278;22.550;2023-04-01T02:26:45;39.25;29.25;17.00
72854;PMS7003;60991;51.278;22.550;2023-04-01T02:28:16;35.00;30.00;18.25
72854;PMS7003;60991;51.278;22.550;2023-04-01T02:29:48;30.00;26.50;17.00
72854;PMS7003;60991;51.278;22.550;2023-04-01T02:31:20;41.75;32.25;18.50
72854;PMS7003;60991;51.278;22.550;2023-04-01T02:32:51;28.75;25.50;16.50
72854;PMS7003;60991;51.278;22.550;2023-04-01T02:34:23;28.50;26.50;19.00
72854;PMS7003;60991;51.278;22.550;2023-04-01T02:35:54;38.00;31.50;18.50
72854;PMS7003;60991;51.278;22.550;2023-04-01T02:37:24;39.00;34.25;18.00
72854;PMS7003;60991;51.278;22.550;2023-04-01T02:38:55;38.00;27.75;18.75
72854;PMS7003;60991;51.278;22.550;2023-04-01T02:40:27;37.75;32.00;20.00
72854;PMS7003;60991;51.278;22.550;2023-04-01T02:41:57;37.50;31.75;19.00
72854;PMS7003;60991;51.278;22.550;2023-04-01T02:43:28;30.50;26.50;19.25
72854;PMS7003;60991;51.278;22.550;2023-04-01T02:44:58;30.00;28.50;18.50
72854;PMS7003;60991;51.278;22.550;2023-04-01T02:46:28;40.25;29.50;19.00
72854;PMS7003;60991;51.278;22.550;2023-04-01T02:47:58;26.67;21.00;14.00
72854;PMS7003;60991;51.278;22.550;2023-04-01T02:49:29;36.00;33.00;20.67
72854;PMS7003;60991;51.278;22.550;2023-04-01T02:50:59;26.67;23.67;17.00
72854;PMS7003;60991;51.278;22.550;2023-04-01T02:52:29;32.00;28.25;17.75
72854;PMS7003;60991;51.278;22.550;2023-04-01T02:54:00;39.75;29.25;18.00
72854;PMS7003;60991;51.278;22.550;2023-04-01T02:55:31;35.75;29.75;19.00
72854;PMS7003;60991;51.278;22.550;2023-04-01T02:57:01;39.75;36.00;22.00
72854;PMS7003;60991;51.278;22.550;2023-04-01T02:58:31;34.75;30.00;19.00
72854;PMS7003;60991;51.278;22.550;2023-04-01T03:00:01;40.50;30.25;20.00
72854;PMS7003;60991;51.278;22.550;2023-04-01T03:01:32;32.25;29.50;19.00
72854;PMS7003;60991;51.278;22.550;2023-04-01T03:03:02;36.50;31.75;18.75
72854;PMS7003;60991;51.278;22.550;2023-04-01T03:04:33;28.25;26.50;19.50
72854;PMS7003;60991;51.278;22.550;2023-04-01T03:06:07;33.67;29.67;20.67
72854;PMS7003;60991;51.278;22.550;2023-04-01T03:07:39;47.25;31.00;20.00
72854;PMS7003;60991;51.278;22.550;2023-04-01T03:09:09;36.75;28.00;17.25
72854;PMS7003;60991;51.278;22.550;2023-04-01T03:10:39;36.67;32.33;20.00
72854;PMS7003;60991;51.278;22.550;2023-04-01T03:12:09;41.67;35.67;20.67
72854;PMS7003;60991;51.278;22.550;2023-04-01T03:13:39;31.67;29.00;19.00
72854;PMS7003;60991;51.278;22.550;2023-04-01T03:15:10;30.00;23.75;13.00
72854;PMS7003;60991;51.278;22.550;2023-04-01T03:16:41;33.00;27.50;20.00
72854;PMS7003;60991;51.278;22.550;2023-04-01T03:18:12;35.33;33.00;18.33
72854;PMS7003;60991;51.278;22.550;2023-04-01T03:19:42;31.00;31.00;19.00
72854;PMS7003;60991;51.278;22.550;2023-04-01T03:21:21;31.75;28.75;18.75
72854;PMS7003;60991;51.278;22.550;2023-04-01T03:22:53;32.00;28.25;18.50
72854;PMS7003;60991;51.278;22.550;2023-04-01T03:24:23;38.25;32.75;20.25
72854;PMS7003;60991;51.278;22.550;2023-04-01T03:25:54;36.25;30.00;21.25
72854;PMS7003;60991;51.278;22.550;2023-04-01T03:27:24;37.67;27.33;20.33
72854;PMS7003;60991;51.278;22.550;2023-04-01T03:28:54;37.33;29.33;18.67
72854;PMS7003;60991;51.278;22.550;2023-04-01T03:30:24;33.33;29.00;21.67
72854;PMS7003;60991;51.278;22.550;2023-04-01T03:31:54;38.50;33.75;22.25
72854;PMS7003;60991;51.278;22.550;2023-04-01T03:33:25;25.67;20.67;17.33
72854;PMS7003;60991;51.278;22.550;2023-04-01T03:34:55;36.25;30.25;19.00
72854;PMS7003;60991;51.278;22.550;2023-04-01T03:36:25;34.25;28.75;21.00
72854;PMS7003;60991;51.278;22.550;2023-04-01T03:37:56;38.25;35.50;18.00
72854;PMS7003;60991;51.278;22.550;2023-04-01T03:39:27;37.25;29.50;19.00
72854;PMS7003;60991;51.278;22.550;2023-04-01T03:40:57;31.00;29.00;18.67
72854;PMS7003;60991;51.278;22.550;2023-04-01T03:42:27;31.67;24.33;17.00
72854;PMS7003;60991;51.278;22.550;2023-04-01T03:43:57;31.67;29.00;19.00
72854;PMS7003;60991;51.278;22.550;2023-04-01T03:45:27;42.00;33.33;21.67
72854;PMS7003;60991;51.278;22.550;2023-04-01T03:46:58;40.33;37.00;24.00
72854;PMS7003;60991;51.278;22.550;2023-04-01T03:48:28;35.25;29.25;20.00
72854;PMS7003;60991;51.278;22.550;2023-04-01T03:49:59;36.33;29.67;21.00
72854;PMS7003;60991;51.278;22.550;2023-04-01T03:51:29;42.00;37.00;22.00
72854;PMS7003;60991;51.278;22.550;2023-04-01T03:52:59;34.33;29.00;21.00
72854;PMS7003;60991;51.278;22.550;2023-04-01T03:54:29;38.33;29.33;21.00
72854;PMS7003;60991;51.278;22.550;2023-04-01T03:56:03;32.00;29.67;18.33
72854;PMS7003;60991;51.278;22.550;2023-04-01T03:57:34;46.50;38.50;24.00
72854;PMS7003;60991;51.278;22.550;2023-04-01T03:59:05;37.33;30.00;20.67
72854;PMS7003;60991;51.278;22.550;2023-04-01T04:00:37;43.25;36.25;21.25
72854;PMS7003;60991;51.278;22.550;2023-04-01T04:02:07;31.33;27.67;18.67
72854;PMS7003;60991;51.278;22.550;2023-04-01T04:03:37;38.33;33.33;21.00
72854;PMS7003;60991;51.278;22.550;2023-04-01T04:05:07;37.25;32.75;20.75
72854;PMS7003;60991;51.278;22.550;2023-04-01T04:06:38;43.75;35.75;21.50
72854;PMS7003;60991;51.278;22.550;2023-04-01T04:08:08;36.50;35.25;21.50
72854;PMS7003;60991;51.278;22.550;2023-04-01T04:09:38;38.00;33.67;21.33
72854;PMS7003;60991;51.278;22.550;2023-04-01T04:11:08;38.25;30.50;22.00
72854;PMS7003;60991;51.278;22.550;2023-04-01T04:12:39;35.33;29.33;18.67
72854;PMS7003;60991;51.278;22.550;2023-04-01T04:14:09;28.00;25.33;19.00
72854;PMS7003;60991;51.278;22.550;2023-04-01T04:15:39;35.33;32.67;22.67
72854;PMS7003;60991;51.278;22.550;2023-04-01T04:17:10;38.67;34.00;21.67
72854;PMS7003;60991;51.278;22.550;2023-04-01T04:18:40;38.75;30.50;18.75
72854;PMS7003;60991;51.278;22.550;2023-04-01T04:20:11;36.00;30.00;20.33
72854;PMS7003;60991;51.278;22.550;2023-04-01T04:21:41;44.50;35.75;22.25
72854;PMS7003;60991;51.278;22.550;2023-04-01T04:23:12;34.00;30.00;19.00
72854;PMS7003;60991;51.278;22.550;2023-04-01T04:24:42;32.00;29.67;21.67
72854;PMS7003;60991;51.278;22.550;2023-04-01T04:26:13;34.67;31.33;22.00
72854;PMS7003;60991;51.278;22.550;2023-04-01T04:27:44;33.75;31.75;22.00
72854;PMS7003;60991;51.278;22.550;2023-04-01T04:29:14;35.33;30.00;20.33
72854;PMS7003;60991;51.278;22.550;2023-04-01T04:30:45;27.67;27.67;19.00
72854;PMS7003;60991;51.278;22.550;2023-04-01T04:32:15;36.33;33.00;19.33
72854;PMS7003;60991;51.278;22.550;2023-04-01T04:33:45;37.00;32.33;22.33
72854;PMS7003;60991;51.278;22.550;2023-04-01T04:35:15;36.25;32.00;19.50
72854;PMS7003;60991;51.278;22.550;2023-04-01T04:36:45;39.00;33.67;21.33
72854;PMS7003;60991;51.278;22.550;2023-04-01T04:38:16;30.33;28.00;19.00
72854;PMS7003;60991;51.278;22.550;2023-04-01T04:39:46;34.75;32.25;22.50
72854;PMS7003;60991;51.278;22.550;2023-04-01T04:41:17;39.25;32.75;21.00
72854;PMS7003;60991;51.278;22.550;2023-04-01T04:42:48;39.50;32.75;22.50
72854;PMS7003;60991;51.278;22.550;2023-04-01T04:44:19;41.67;32.33;20.33
72854;PMS7003;60991;51.278;22.550;2023-04-01T04:45:50;27.00;27.00;18.50
72854;PMS7003;60991;51.278;22.550;2023-04-01T04:47:21;33.75;30.50;19.50
72854;PMS7003;60991;51.278;22.550;2023-04-01T04:48:51;45.75;37.50;18.00
72854;PMS7003;60991;51.278;22.550;2023-04-01T04:50:21;29.00;25.33;18.33
72854;PMS7003;60991;51.278;22.550;2023-04-01T04:51:52;39.00;33.25;21.50
72854;PMS7003;60991;51.278;22.550;2023-04-01T04:53:23;39.67;29.00;19.33
72854;PMS7003;60991;51.278;22.550;2023-04-01T04:54:53;10.67;9.67;0.00
72854;PMS7003;60991;51.278;22.550;2023-04-01T04:56:23;39.67;33.67;21.67
72854;PMS7003;60991;51.278;22.550;2023-04-01T04:57:53;38.75;29.25;21.25
72854;PMS7003;60991;51.278;22.550;2023-04-01T04:59:23;37.33;34.00;18.67
72854;PMS7003;60991;51.278;22.550;2023-04-01T05:00:54;36.33;32.00;19.00
72854;PMS7003;60991;51.278;22.550;2023-04-01T05:02:24;28.75;24.50;18.00
72854;PMS7003;60991;51.278;22.550;2023-04-01T05:03:54;38.50;33.50;21.75
72854;PMS7003;60991;51.278;22.550;2023-04-01T05:05:25;42.25;33.50;20.50
72854;PMS7003;60991;51.278;22.550;2023-04-01T05:06:55;34.33;32.00;21.67
72854;PMS7003;60991;51.278;22.550;2023-04-01T05:08:25;35.00;30.33;18.00
72854;PMS7003;60991;51.278;22.550;2023-04-01T05:09:55;36.33;32.00;20.67
72854;PMS7003;60991;51.278;22.550;2023-04-01T05:11:25;31.33;30.00;22.67
72854;PMS7003;60991;51.278;22.550;2023-04-01T05:12:56;45.75;34.50;20.00
72854;PMS7003;60991;51.278;22.550;2023-04-01T05:14:26;45.25;36.75;20.75
72854;PMS7003;60991;51.278;22.550;2023-04-01T05:15:56;37.50;33.00;20.75
72854;PMS7003;60991;51.278;22.550;2023-04-01T05:17:26;38.33;29.67;21.33
72854;PMS7003;60991;51.278;22.550;2023-04-01T05:18:57;31.50;28.25;19.75
72854;PMS7003;60991;51.278;22.550;2023-04-01T05:20:27;32.75;31.25;18.25
72854;PMS7003;60991;51.278;22.550;2023-04-01T05:21:57;41.00;32.75;20.00
72854;PMS7003;60991;51.278;22.550;2023-04-01T05:23:27;25.67;25.00;19.00
72854;PMS7003;60991;51.278;22.550;2023-04-01T05:24:57;32.00;29.00;19.33
72854;PMS7003;60991;51.278;22.550;2023-04-01T05:26:28;31.50;28.25;19.00
72854;PMS7003;60991;51.278;22.550;2023-04-01T05:27:58;33.00;31.00;20.00
72854;PMS7003;60991;51.278;22.550;2023-04-01T05:29:28;41.00;30.67;20.67
72854;PMS7003;60991;51.278;22.550;2023-04-01T05:30:59;30.50;30.25;19.25
72854;PMS7003;60991;51.278;22.550;2023-04-01T05:32:30;39.00;31.25;20.25
72854;PMS7003;60991;51.278;22.550;2023-04-01T05:34:01;41.75;32.75;21.75
72854;PMS7003;60991;51.278;22.550;2023-04-01T05:35:31;37.00;31.00;18.50
72854;PMS7003;60991;51.278;22.550;2023-04-01T05:37:01;26.50;24.25;19.00
72854;PMS7003;60991;51.278;22.550;2023-04-01T05:38:31;38.00;31.75;20.25
72854;PMS7003;60991;51.278;22.550;2023-04-01T05:40:03;29.25;24.50;18.00
72854;PMS7003;60991;51.278;22.550;2023-04-01T05:41:35;28.50;25.75;15.00
72854;PMS7003;60991;51.278;22.550;2023-04-01T05:43:05;35.75;30.50;18.50
72854;PMS7003;60991;51.278;22.550;2023-04-01T05:44:36;30.25;28.00;18.50
72854;PMS7003;60991;51.278;22.550;2023-04-01T05:46:06;34.25;27.00;20.00
72854;PMS7003;60991;51.278;22.550;2023-04-01T05:47:36;34.50;29.75;18.00
72854;PMS7003;60991;51.278;22.550;2023-04-01T05:49:06;39.00;31.00;19.00
72854;PMS7003;60991;51.278;22.550;2023-04-01T05:50:39;30.50;25.25;16.50
72854;PMS7003;60991;51.278;22.550;2023-04-01T05:52:09;39.75;27.75;18.50
72854;PMS7003;60991;51.278;22.550;2023-04-01T05:53:40;37.67;31.67;19.67
72854;PMS7003;60991;51.278;22.550;2023-04-01T05:55:11;34.25;30.25;19.00
72854;PMS7003;60991;51.278;22.550;2023-04-01T05:56:41;33.75;28.50;19.75
72854;PMS7003;60991;51.278;22.550;2023-04-01T05:58:11;37.33;29.33;18.00
72854;PMS7003;60991;51.278;22.550;2023-04-01T05:59:42;29.67;26.67;18.67
72854;PMS7003;60991;51.278;22.550;2023-04-01T06:01:12;32.33;25.33;16.33
72854;PMS7003;60991;51.278;22.550;2023-04-01T06:02:42;36.00;30.33;20.00
72854;PMS7003;60991;51.278;22.550;2023-04-01T06:04:16;32.50;28.00;17.75
72854;PMS7003;60991;51.278;22.550;2023-04-01T06:05:47;30.00;26.00;19.25
72854;PMS7003;60991;51.278;22.550;2023-04-01T06:07:18;38.00;31.33;20.33
72854;PMS7003;60991;51.278;22.550;2023-04-01T06:08:48;36.25;31.75;20.00
72854;PMS7003;60991;51.278;22.550;2023-04-01T06:10:19;32.50;30.00;19.50
72854;PMS7003;60991;51.278;22.550;2023-04-01T06:16:00;26.75;24.00;16.75
72854;PMS7003;60991;51.278;22.550;2023-04-01T06:17:50;36.25;29.50;17.75
72854;PMS7003;60991;51.278;22.550;2023-04-01T06:19:40;35.50;27.50;17.50
72854;PMS7003;60991;51.278;22.550;2023-04-01T06:21:33;35.00;26.25;17.00
72854;PMS7003;60991;51.278;22.550;2023-04-01T06:25:20;31.75;27.50;17.75
72854;PMS7003;60991;51.278;22.550;2023-04-01T06:31:10;32.75;28.75;15.50
72854;PMS7003;60991;51.278;22.550;2023-04-01T06:35:02;36.00;23.75;17.25
72854;PMS7003;60991;51.278;22.550;2023-04-01T06:36:57;31.00;29.25;19.00
72854;PMS7003;60991;51.278;22.550;2023-04-01T06:40:33;26.50;25.75;17.00
72854;PMS7003;60991;51.278;22.550;2023-04-01T06:43:50;35.75;29.75;20.00
72854;PMS7003;60991;51.278;22.550;2023-04-01T06:45:45;27.50;26.00;17.25
72854;PMS7003;60991;51.278;22.550;2023-04-01T06:49:26;28.50;23.50;14.00
72854;PMS7003;60991;51.278;22.550;2023-04-01T06:54:31;30.00;25.75;18.25
72854;PMS7003;60991;51.278;22.550;2023-04-01T06:56:08;32.50;27.00;18.00
72854;PMS7003;60991;51.278;22.550;2023-04-01T06:57:42;27.25;24.25;18.00
72854;PMS7003;60991;51.278;22.550;2023-04-01T06:59:17;27.25;25.25;15.75
72854;PMS7003;60991;51.278;22.550;2023-04-01T07:00:51;27.75;24.25;15.50
72854;PMS7003;60991;51.278;22.550;2023-04-01T07:04:01;24.75;22.00;15.50
72854;PMS7003;60991;51.278;22.550;2023-04-01T07:05:39;33.25;30.50;18.50
72854;PMS7003;60991;51.278;22.550;2023-04-01T07:07:15;32.75;27.75;15.25
72854;PMS7003;60991;51.278;22.550;2023-04-01T07:08:54;28.50;23.75;16.00
72854;PMS7003;60991;51.278;22.550;2023-04-01T07:12:33;33.75;27.75;15.25
72854;PMS7003;60991;51.278;22.550;2023-04-01T07:16:17;29.75;26.00;18.50
72854;PMS7003;60991;51.278;22.550;2023-04-01T07:17:53;21.25;20.00;14.00
72854;PMS7003;60991;51.278;22.550;2023-04-01T07:19:32;29.75;26.25;17.75
72854;PMS7003;60991;51.278;22.550;2023-04-01T07:21:04;34.25;30.50;16.50
72854;PMS7003;60991;51.278;22.550;2023-04-01T07:22:49;24.50;24.00;13.50
72854;PMS7003;60991;51.278;22.550;2023-04-01T07:24:29;30.00;24.00;17.75
72854;PMS7003;60991;51.278;22.550;2023-04-01T07:26:22;30.50;26.25;16.00
72854;PMS7003;60991;51.278;22.550;2023-04-01T07:28:00;27.75;23.25;15.50
72854;PMS7003;60991;51.278;22.550;2023-04-01T07:29:41;24.00;19.75;15.75
72854;PMS7003;60991;51.278;22.550;2023-04-01T07:33:16;26.75;23.00;16.00
72854;PMS7003;60991;51.278;22.550;2023-04-01T07:35:13;28.50;23.25;14.50
72854;PMS7003;60991;51.278;22.550;2023-04-01T07:36:51;20.75;20.75;13.25
72854;PMS7003;60991;51.278;22.550;2023-04-01T07:38:33;30.50;20.50;14.50
72854;PMS7003;60991;51.278;22.550;2023-04-01T07:42:32;29.50;25.25;15.50
72854;PMS7003;60991;51.278;22.550;2023-04-01T07:44:11;25.50;19.00;13.00
72854;PMS7003;60991;51.278;22.550;2023-04-01T07:46:15;24.25;18.50;13.75
72854;PMS7003;60991;51.278;22.550;2023-04-01T07:49:52;21.00;20.50;13.00
72854;PMS7003;60991;51.278;22.550;2023-04-01T07:53:49;19.50;16.00;12.00
72854;PMS7003;60991;51.278;22.550;2023-04-01T07:57:37;20.50;16.50;9.75
72854;PMS7003;60991;51.278;22.550;2023-04-01T07:59:29;19.25;15.25;10.50
72854;PMS7003;60991;51.278;22.550;2023-04-01T08:06:58;18.50;17.00;11.00
72854;PMS7003;60991;51.278;22.550;2023-04-01T08:09:00;20.75;15.50;9.50
72854;PMS7003;60991;51.278;22.550;2023-04-01T08:10:41;23.75;21.00;12.00
72854;PMS7003;60991;51.278;22.550;2023-04-01T08:14:00;14.75;14.00;10.75
72854;PMS7003;60991;51.278;22.550;2023-04-01T08:19:36;21.25;16.75;12.50
72854;PMS7003;60991;51.278;22.550;2023-04-01T08:23:22;14.25;14.25;9.00
72854;PMS7003;60991;51.278;22.550;2023-04-01T08:24:57;12.25;10.00;8.50
72854;PMS7003;60991;51.278;22.550;2023-04-01T08:26:44;11.00;9.50;8.00
72854;PMS7003;60991;51.278;22.550;2023-04-01T08:30:26;12.75;12.75;8.00
72854;PMS7003;60991;51.278;22.550;2023-04-01T08:32:10;12.75;11.25;9.00
72854;PMS7003;60991;51.278;22.550;2023-04-01T08:33:47;8.25;5.00;3.00
72854;PMS7003;60991;51.278;22.550;2023-04-01T08:37:08;10.25;8.50;7.00
72854;PMS7003;60991;51.278;22.550;2023-04-01T08:38:44;11.25;8.75;6.50
72854;PMS7003;60991;51.278;22.550;2023-04-01T08:44:18;11.00;11.00;8.50
72854;PMS7003;60991;51.278;22.550;2023-04-01T08:46:32;12.50;11.25;7.00
72854;PMS7003;60991;51.278;22.550;2023-04-01T08:48:35;16.75;14.50;9.75
72854;PMS7003;60991;51.278;22.550;2023-04-01T08:52:06;14.00;14.00;8.50
72854;PMS7003;60991;51.278;22.550;2023-04-01T08:53:49;12.00;11.50;8.00
72854;PMS7003;60991;51.278;22.550;2023-04-01T08:57:06;11.50;11.25;9.00
72854;PMS7003;60991;51.278;22.550;2023-04-01T08:58:43;17.00;16.75;11.00
72854;PMS7003;60991;51.278;22.550;2023-04-01T09:00:30;17.75;13.00;9.75
72854;PMS7003;60991;51.278;22.550;2023-04-01T09:04:25;13.00;12.00;10.00
72854;PMS7003;60991;51.278;22.550;2023-04-01T09:09:35;11.25;9.50;5.50
72854;PMS7003;60991;51.278;22.550;2023-04-01T09:13:42;13.00;10.00;8.00
72854;PMS7003;60991;51.278;22.550;2023-04-01T09:16:00;16.50;11.50;8.75
72854;PMS7003;60991;51.278;22.550;2023-04-01T09:21:51;10.00;7.50;5.50
72854;PMS7003;60991;51.278;22.550;2023-04-01T09:23:48;9.00;8.50;7.00
72854;PMS7003;60991;51.278;22.550;2023-04-01T09:25:45;4.25;4.25;3.50
72854;PMS7003;60991;51.278;22.550;2023-04-01T09:29:02;5.00;4.00;3.50
72854;PMS7003;60991;51.278;22.550;2023-04-01T09:33:11;4.50;4.00;3.25
72854;PMS7003;60991;51.278;22.550;2023-04-01T09:35:22;3.00;3.00;2.50
72854;PMS7003;60991;51.278;22.550;2023-04-01T09:36:59;3.50;3.00;3.00
72854;PMS7003;60991;51.278;22.550;2023-04-01T09:38:59;6.75;5.25;4.25
72854;PMS7003;60991;51.278;22.550;2023-04-01T09:42:49;3.50;3.00;2.00
72854;PMS7003;60991;51.278;22.550;2023-04-01T09:44:18;4.00;3.00;3.00
72854;PMS7003;60991;51.278;22.550;2023-04-01T09:48:39;3.50;3.50;2.00
72854;PMS7003;60991;51.278;22.550;2023-04-01T09:50:29;8.00;4.25;3.25
72854;PMS7003;60991;51.278;22.550;2023-04-01T09:52:10;2.00;2.00;2.00
72854;PMS7003;60991;51.278;22.550;2023-04-01T09:53:57;4.25;3.00;2.00
72854;PMS7003;60991;51.278;22.550;2023-04-01T10:23:18;7.75;7.75;6.00
72854;PMS7003;60991;51.278;22.550;2023-04-01T10:27:02;9.25;9.25;7.25
72854;PMS7003;60991;51.278;22.550;2023-04-01T10:28:48;9.75;9.75;7.50
72854;PMS7003;60991;51.278;22.550;2023-04-01T10:42:32;10.00;7.50;6.00
72854;PMS7003;60991;51.278;22.550;2023-04-01T10:46:43;10.75;10.00;9.00
72854;PMS7003;60991;51.278;22.550;2023-04-01T10:48:34;6.00;6.00;4.75
72854;PMS7003;60991;51.278;22.550;2023-04-01T10:50:20;8.00;8.00;7.00
72854;PMS7003;60991;51.278;22.550;2023-04-01T10:52:08;12.00;10.25;8.75
72854;PMS7003;60991;51.278;22.550;2023-04-01T10:53:49;11.25;8.25;7.00
72854;PMS7003;60991;51.278;22.550;2023-04-01T11:04:03;12.00;11.25;9.00
72854;PMS7003;60991;51.278;22.550;2023-04-01T11:11:46;13.00;12.50;9.00
72854;PMS7003;60991;51.278;22.550;2023-04-01T11:13:33;12.75;10.75;7.00
72854;PMS7003;60991;51.278;22.550;2023-04-01T11:19:31;9.75;9.75;6.75
72854;PMS7003;60991;51.278;22.550;2023-04-01T11:32:23;12.50;10.75;8.75
72854;PMS7003;60991;51.278;22.550;2023-04-01T11:34:07;10.25;10.25;7.50
72854;PMS7003;60991;51.278;22.550;2023-04-01T11:36:00;10.25;10.25;7.00
72854;PMS7003;60991;51.278;22.550;2023-04-01T11:37:54;11.75;11.75;9.75
72854;PMS7003;60991;51.278;22.550;2023-04-01T11:41:49;11.00;11.00;10.00
72854;PMS7003;60991;51.278;22.550;2023-04-01T12:04:36;10.75;9.75;7.00
72854;PMS7003;60991;51.278;22.550;2023-04-01T12:17:18;3.25;2.25;2.00
72854;PMS7003;60991;51.278;22.550;2023-04-01T12:19:09;3.00;2.00;0.75
72854;PMS7003;60991;51.278;22.550;2023-04-01T12:22:41;0.00;0.00;0.00